SAS24A ENBR-EKCH
Flight info
| Callsign | SAS24A |
|---|---|
| Flight time | 1h 7m |
| Altitude | 35000 |
| Route | TUXIL DCT ZOL DCT TESPI |
| Aircraft | A321/M-SDE3FGHIRWY/LB1 |
Departure
| Time | 2026-04-30 20:18 |
|---|---|
| Airport | Bergen Airport, Flesland (ENBR) |
Arrival
| Time | 2026-04-30 21:26 |
|---|---|
| Airport | Copenhagen Kastrup Airport (EKCH) |
| Time | Latitude | Longitude | Altitude | Speed | Heading |
|---|---|---|---|---|---|
| 2026-04-30 19:46 | 60.28934 | 5.22539 | 174 ft | 0 kts | 108° |
| 2026-04-30 20:09 | 60.28939 | 5.22508 | 174 ft | 3 kts | 102° |
| 2026-04-30 20:09 | 60.28950 | 5.22440 | 174 ft | 2 kts | 138° |
| 2026-04-30 20:10 | 60.28967 | 5.22411 | 173 ft | 0 kts | 138° |
| 2026-04-30 20:12 | 60.28963 | 5.22415 | 174 ft | 0 kts | 152° |
| 2026-04-30 20:12 | 60.28956 | 5.22415 | 173 ft | 1 kts | 177° |
| 2026-04-30 20:12 | 60.28945 | 5.22396 | 173 ft | 4 kts | 223° |
| 2026-04-30 20:13 | 60.28936 | 5.22328 | 173 ft | 7 kts | 283° |
| 2026-04-30 20:13 | 60.28976 | 5.22264 | 173 ft | 8 kts | 340° |
| 2026-04-30 20:13 | 60.29033 | 5.22244 | 173 ft | 8 kts | 351° |
| 2026-04-30 20:13 | 60.29112 | 5.22220 | 164 ft | 17 kts | 351° |
| 2026-04-30 20:14 | 60.29222 | 5.22183 | 169 ft | 14 kts | 350° |
| 2026-04-30 20:14 | 60.29308 | 5.22151 | 173 ft | 12 kts | 349° |
| 2026-04-30 20:14 | 60.29395 | 5.22120 | 172 ft | 13 kts | 350° |
| 2026-04-30 20:14 | 60.29485 | 5.22089 | 174 ft | 13 kts | 351° |
| 2026-04-30 20:15 | 60.29587 | 5.22055 | 170 ft | 17 kts | 351° |
| 2026-04-30 20:15 | 60.29719 | 5.22007 | 166 ft | 21 kts | 350° |
| 2026-04-30 20:15 | 60.29870 | 5.21960 | 162 ft | 23 kts | 349° |
| 2026-04-30 20:15 | 60.30030 | 5.21914 | 159 ft | 22 kts | 351° |
| 2026-04-30 20:16 | 60.30172 | 5.21868 | 159 ft | 21 kts | 350° |
| 2026-04-30 20:16 | 60.30327 | 5.21817 | 159 ft | 22 kts | 350° |
| 2026-04-30 20:16 | 60.30474 | 5.21768 | 160 ft | 19 kts | 350° |
| 2026-04-30 20:16 | 60.30597 | 5.21728 | 164 ft | 17 kts | 352° |
| 2026-04-30 20:17 | 60.30669 | 5.21610 | 165 ft | 12 kts | 272° |
| 2026-04-30 20:17 | 60.30650 | 5.21443 | 166 ft | 12 kts | 237° |
| 2026-04-30 20:17 | 60.30593 | 5.21408 | 164 ft | 0 kts | 173° |
| 2026-04-30 20:17 | 60.30592 | 5.21408 | 164 ft | 1 kts | 173° |
| 2026-04-30 20:18 | 60.30546 | 5.21421 | 161 ft | 23 kts | 171° |
| 2026-04-30 20:18 | 60.30113 | 5.21571 | 156 ft | 99 kts | 171° |
| 2026-04-30 20:18 | 60.29230 | 5.21865 | 215 ft | 152 kts | 170° |
| 2026-04-30 20:18 | 60.28189 | 5.22172 | 936 ft | 150 kts | 171° |
| 2026-04-30 20:19 | 60.27163 | 5.22531 | 1747 ft | 149 kts | 170° |
| 2026-04-30 20:19 | 60.26489 | 5.22788 | 2150 ft | 151 kts | 171° |
| 2026-04-30 20:19 | 60.25050 | 5.23299 | 2721 ft | 163 kts | 172° |
| 2026-04-30 20:19 | 60.23879 | 5.23681 | 3027 ft | 179 kts | 173° |
| 2026-04-30 20:20 | 60.22585 | 5.24070 | 3305 ft | 196 kts | 174° |
| 2026-04-30 20:20 | 60.21187 | 5.24459 | 3639 ft | 209 kts | 174° |
| 2026-04-30 20:20 | 60.19689 | 5.24868 | 3880 ft | 228 kts | 173° |
| 2026-04-30 20:20 | 60.18042 | 5.25423 | 4151 ft | 249 kts | 172° |
| 2026-04-30 20:21 | 60.16303 | 5.26046 | 4758 ft | 256 kts | 173° |
| 2026-04-30 20:21 | 60.14531 | 5.26675 | 5430 ft | 261 kts | 173° |
| 2026-04-30 20:21 | 60.12731 | 5.27301 | 6112 ft | 264 kts | 174° |
| 2026-04-30 20:21 | 60.10910 | 5.27927 | 6813 ft | 267 kts | 174° |
| 2026-04-30 20:22 | 60.09068 | 5.28555 | 7471 ft | 269 kts | 175° |
| 2026-04-30 20:22 | 60.07216 | 5.29115 | 8148 ft | 270 kts | 176° |
| 2026-04-30 20:22 | 60.05348 | 5.29620 | 8835 ft | 271 kts | 177° |
| 2026-04-30 20:22 | 60.03475 | 5.30108 | 9504 ft | 272 kts | 177° |
| 2026-04-30 20:23 | 60.01583 | 5.30596 | 10169 ft | 275 kts | 177° |
| 2026-04-30 20:23 | 59.99674 | 5.31088 | 10708 ft | 282 kts | 177° |
| 2026-04-30 20:23 | 59.97657 | 5.31604 | 10839 ft | 303 kts | 177° |
| 2026-04-30 20:23 | 59.95497 | 5.32162 | 10969 ft | 322 kts | 177° |
| 2026-04-30 20:24 | 59.93245 | 5.32750 | 11170 ft | 337 kts | 176° |
| 2026-04-30 20:24 | 59.90872 | 5.33381 | 11656 ft | 342 kts | 176° |
| 2026-04-30 20:24 | 59.88532 | 5.34011 | 12244 ft | 345 kts | 176° |
| 2026-04-30 20:24 | 59.86149 | 5.34653 | 12858 ft | 346 kts | 176° |
| 2026-04-30 20:25 | 59.81350 | 5.35938 | 14058 ft | 350 kts | 176° |
| 2026-04-30 20:25 | 59.78927 | 5.36556 | 14579 ft | 352 kts | 177° |
| 2026-04-30 20:26 | 59.74010 | 5.37435 | 15518 ft | 358 kts | 179° |
| 2026-04-30 20:26 | 59.68998 | 5.38162 | 16460 ft | 364 kts | 180° |
| 2026-04-30 20:26 | 59.66464 | 5.38546 | 16931 ft | 368 kts | 179° |
| 2026-04-30 20:27 | 59.61319 | 5.39530 | 17840 ft | 375 kts | 177° |
| 2026-04-30 20:27 | 59.56100 | 5.40906 | 18689 ft | 382 kts | 176° |
| 2026-04-30 20:28 | 59.50798 | 5.42342 | 19444 ft | 387 kts | 176° |
| 2026-04-30 20:28 | 59.45426 | 5.43713 | 20195 ft | 392 kts | 176° |
| 2026-04-30 20:29 | 59.39980 | 5.45073 | 20942 ft | 397 kts | 176° |
| 2026-04-30 20:30 | 59.31713 | 5.47958 | 22038 ft | 407 kts | 172° |
| 2026-04-30 20:30 | 59.23301 | 5.51209 | 23126 ft | 414 kts | 173° |
| 2026-04-30 20:31 | 59.14725 | 5.54313 | 24147 ft | 421 kts | 173° |
| 2026-04-30 20:32 | 59.06009 | 5.57403 | 25045 ft | 427 kts | 173° |
| 2026-04-30 20:32 | 59.00131 | 5.59513 | 25638 ft | 431 kts | 172° |
| 2026-04-30 20:33 | 58.97175 | 5.60570 | 25923 ft | 433 kts | 172° |
| 2026-04-30 20:33 | 58.92305 | 5.62314 | 26406 ft | 437 kts | 171° |
| 2026-04-30 20:33 | 58.89374 | 5.63983 | 26680 ft | 442 kts | 161° |
| 2026-04-30 20:34 | 58.84095 | 5.70283 | 27226 ft | 454 kts | 140° |
| 2026-04-30 20:34 | 58.79508 | 5.78735 | 27775 ft | 458 kts | 139° |
| 2026-04-30 20:35 | 58.77188 | 5.82980 | 28042 ft | 460 kts | 139° |
| 2026-04-30 20:35 | 58.74860 | 5.87214 | 28299 ft | 462 kts | 139° |
| 2026-04-30 20:35 | 58.70165 | 5.95736 | 28791 ft | 465 kts | 139° |
| 2026-04-30 20:36 | 58.67813 | 6.00003 | 29016 ft | 467 kts | 139° |
| 2026-04-30 20:36 | 58.65447 | 6.04289 | 29243 ft | 468 kts | 139° |
| 2026-04-30 20:36 | 58.60701 | 6.12860 | 29821 ft | 468 kts | 139° |
| 2026-04-30 20:37 | 58.58331 | 6.17125 | 30134 ft | 467 kts | 138° |
| 2026-04-30 20:37 | 58.55964 | 6.21378 | 30449 ft | 466 kts | 138° |
| 2026-04-30 20:37 | 58.53600 | 6.25620 | 30710 ft | 466 kts | 139° |
| 2026-04-30 20:37 | 58.51233 | 6.29858 | 30962 ft | 465 kts | 138° |
| 2026-04-30 20:38 | 58.48867 | 6.34083 | 31216 ft | 465 kts | 139° |
| 2026-04-30 20:38 | 58.46504 | 6.38298 | 31458 ft | 465 kts | 138° |
| 2026-04-30 20:38 | 58.44145 | 6.42504 | 31700 ft | 464 kts | 138° |
| 2026-04-30 20:39 | 58.39414 | 6.50894 | 32180 ft | 464 kts | 139° |
| 2026-04-30 20:39 | 58.37048 | 6.55076 | 32417 ft | 464 kts | 138° |
| 2026-04-30 20:39 | 58.34684 | 6.59254 | 32656 ft | 464 kts | 138° |
| 2026-04-30 20:40 | 58.29964 | 6.67604 | 33117 ft | 464 kts | 136° |
| 2026-04-30 20:40 | 58.27757 | 6.71983 | 33332 ft | 464 kts | 134° |
| 2026-04-30 20:40 | 58.25542 | 6.76544 | 33556 ft | 464 kts | 133° |
| 2026-04-30 20:41 | 58.21255 | 6.85598 | 33992 ft | 464 kts | 133° |
| 2026-04-30 20:41 | 58.19101 | 6.90147 | 34218 ft | 464 kts | 133° |
| 2026-04-30 20:41 | 58.16936 | 6.94685 | 34442 ft | 464 kts | 133° |
| 2026-04-30 20:41 | 58.14764 | 6.99195 | 34639 ft | 463 kts | 133° |
| 2026-04-30 20:42 | 58.12591 | 7.03682 | 34824 ft | 463 kts | 133° |
| 2026-04-30 20:42 | 58.10412 | 7.08171 | 35018 ft | 463 kts | 133° |
| 2026-04-30 20:42 | 58.06060 | 7.17111 | 35376 ft | 462 kts | 133° |
| 2026-04-30 20:43 | 58.03880 | 7.21569 | 35432 ft | 462 kts | 133° |
| 2026-04-30 20:43 | 57.99524 | 7.30455 | 35420 ft | 461 kts | 133° |
| 2026-04-30 20:44 | 57.92970 | 7.43781 | 35418 ft | 463 kts | 133° |
| 2026-04-30 20:45 | 57.84189 | 7.61544 | 35420 ft | 465 kts | 133° |
| 2026-04-30 20:45 | 57.79774 | 7.70426 | 35425 ft | 465 kts | 133° |
| 2026-04-30 20:46 | 57.70907 | 7.88108 | 35435 ft | 466 kts | 133° |
| 2026-04-30 20:47 | 57.64238 | 8.01343 | 35440 ft | 466 kts | 133° |
| 2026-04-30 20:48 | 57.57584 | 8.14469 | 35441 ft | 466 kts | 133° |
| 2026-04-30 20:48 | 57.53121 | 8.23220 | 35453 ft | 466 kts | 133° |
| 2026-04-30 20:49 | 57.48648 | 8.31956 | 35448 ft | 465 kts | 133° |
| 2026-04-30 20:50 | 57.41949 | 8.44995 | 35454 ft | 465 kts | 133° |
| 2026-04-30 20:50 | 57.37454 | 8.53704 | 35461 ft | 464 kts | 133° |
| 2026-04-30 20:51 | 57.32988 | 8.62324 | 35459 ft | 464 kts | 133° |
| 2026-04-30 20:51 | 57.26281 | 8.75206 | 35462 ft | 463 kts | 133° |
| 2026-04-30 20:52 | 57.21801 | 8.83754 | 35467 ft | 463 kts | 133° |
| 2026-04-30 20:53 | 57.15116 | 8.96478 | 35468 ft | 462 kts | 133° |
| 2026-04-30 20:53 | 57.10643 | 9.04950 | 35471 ft | 461 kts | 133° |
| 2026-04-30 20:54 | 57.03936 | 9.17607 | 35468 ft | 461 kts | 133° |
| 2026-04-30 20:55 | 56.97221 | 9.30204 | 35469 ft | 460 kts | 133° |
| 2026-04-30 20:55 | 56.92734 | 9.38574 | 35467 ft | 460 kts | 133° |
| 2026-04-30 20:56 | 56.85992 | 9.51097 | 35468 ft | 460 kts | 133° |
| 2026-04-30 20:57 | 56.79242 | 9.63568 | 35471 ft | 460 kts | 133° |
| 2026-04-30 20:57 | 56.74740 | 9.71843 | 35469 ft | 460 kts | 133° |
| 2026-04-30 20:58 | 56.67966 | 9.84242 | 35466 ft | 460 kts | 133° |
| 2026-04-30 20:58 | 56.63475 | 9.92449 | 35470 ft | 461 kts | 133° |
| 2026-04-30 20:59 | 56.56677 | 10.04779 | 35470 ft | 461 kts | 133° |
| 2026-04-30 21:00 | 56.52140 | 10.12965 | 34808 ft | 460 kts | 133° |
| 2026-04-30 21:00 | 56.47565 | 10.21209 | 33093 ft | 466 kts | 133° |
| 2026-04-30 21:01 | 56.42945 | 10.29499 | 31389 ft | 469 kts | 133° |
| 2026-04-30 21:01 | 56.40625 | 10.33652 | 30736 ft | 467 kts | 133° |
| 2026-04-30 21:01 | 56.36058 | 10.41788 | 29594 ft | 456 kts | 133° |
| 2026-04-30 21:02 | 56.33811 | 10.45775 | 29023 ft | 451 kts | 133° |
| 2026-04-30 21:02 | 56.31585 | 10.49723 | 28470 ft | 446 kts | 133° |
| 2026-04-30 21:02 | 56.29390 | 10.53616 | 27921 ft | 441 kts | 133° |
| 2026-04-30 21:02 | 56.27217 | 10.57468 | 27388 ft | 436 kts | 133° |
| 2026-04-30 21:03 | 56.25066 | 10.61280 | 26835 ft | 432 kts | 133° |
| 2026-04-30 21:03 | 56.22935 | 10.65046 | 26301 ft | 427 kts | 133° |
| 2026-04-30 21:03 | 56.20825 | 10.68767 | 25766 ft | 423 kts | 133° |
| 2026-04-30 21:03 | 56.18728 | 10.72456 | 25247 ft | 420 kts | 133° |
| 2026-04-30 21:04 | 56.16653 | 10.76099 | 24731 ft | 416 kts | 133° |
| 2026-04-30 21:04 | 56.14592 | 10.79711 | 24227 ft | 412 kts | 133° |
| 2026-04-30 21:04 | 56.10523 | 10.86818 | 23218 ft | 403 kts | 133° |
| 2026-04-30 21:05 | 56.08529 | 10.90291 | 22763 ft | 397 kts | 133° |
| 2026-04-30 21:05 | 56.06561 | 10.93712 | 22300 ft | 392 kts | 133° |
| 2026-04-30 21:05 | 56.04618 | 10.97092 | 21877 ft | 387 kts | 133° |
| 2026-04-30 21:05 | 56.02701 | 11.00422 | 21450 ft | 381 kts | 133° |
| 2026-04-30 21:06 | 56.00811 | 11.03702 | 21027 ft | 376 kts | 133° |
| 2026-04-30 21:06 | 55.98946 | 11.06935 | 20598 ft | 371 kts | 133° |
| 2026-04-30 21:06 | 55.97104 | 11.10123 | 20169 ft | 368 kts | 133° |
| 2026-04-30 21:06 | 55.95267 | 11.13291 | 19734 ft | 365 kts | 133° |
| 2026-04-30 21:07 | 55.93449 | 11.16424 | 19304 ft | 362 kts | 133° |
| 2026-04-30 21:07 | 55.91639 | 11.19539 | 18859 ft | 360 kts | 133° |
| 2026-04-30 21:07 | 55.89843 | 11.22634 | 18369 ft | 357 kts | 133° |
| 2026-04-30 21:07 | 55.88064 | 11.25694 | 17927 ft | 354 kts | 133° |
| 2026-04-30 21:08 | 55.86296 | 11.28727 | 17478 ft | 351 kts | 133° |
| 2026-04-30 21:08 | 55.84543 | 11.31725 | 17075 ft | 346 kts | 133° |
| 2026-04-30 21:08 | 55.82862 | 11.34588 | 16945 ft | 333 kts | 133° |
| 2026-04-30 21:08 | 55.81208 | 11.37408 | 16659 ft | 325 kts | 133° |
| 2026-04-30 21:09 | 55.79598 | 11.40177 | 16366 ft | 319 kts | 130° |
| 2026-04-30 21:09 | 55.78253 | 11.43256 | 16112 ft | 313 kts | 117° |
| 2026-04-30 21:09 | 55.77353 | 11.46715 | 15868 ft | 307 kts | 104° |
| 2026-04-30 21:09 | 55.76899 | 11.50394 | 15623 ft | 303 kts | 95° |
| 2026-04-30 21:10 | 55.76617 | 11.54105 | 15383 ft | 302 kts | 95° |
| 2026-04-30 21:10 | 55.76329 | 11.57794 | 15093 ft | 301 kts | 95° |
| 2026-04-30 21:10 | 55.76036 | 11.61458 | 14726 ft | 299 kts | 95° |
| 2026-04-30 21:10 | 55.75741 | 11.65087 | 14339 ft | 297 kts | 96° |
| 2026-04-30 21:11 | 55.75445 | 11.68703 | 13925 ft | 295 kts | 96° |
| 2026-04-30 21:11 | 55.75152 | 11.72297 | 13544 ft | 293 kts | 96° |
| 2026-04-30 21:11 | 55.74865 | 11.75856 | 13425 ft | 292 kts | 96° |
| 2026-04-30 21:11 | 55.74576 | 11.79431 | 13245 ft | 294 kts | 96° |
| 2026-04-30 21:12 | 55.74285 | 11.83028 | 12738 ft | 295 kts | 96° |
| 2026-04-30 21:12 | 55.73993 | 11.86623 | 12287 ft | 294 kts | 96° |
| 2026-04-30 21:12 | 55.73699 | 11.90212 | 11857 ft | 293 kts | 96° |
| 2026-04-30 21:12 | 55.73404 | 11.93793 | 11435 ft | 292 kts | 96° |
| 2026-04-30 21:13 | 55.73110 | 11.97359 | 10981 ft | 293 kts | 96° |
| 2026-04-30 21:13 | 55.72815 | 12.00920 | 10601 ft | 291 kts | 96° |
| 2026-04-30 21:13 | 55.72521 | 12.04476 | 10203 ft | 290 kts | 96° |
| 2026-04-30 21:13 | 55.72227 | 12.08008 | 9793 ft | 288 kts | 96° |
| 2026-04-30 21:14 | 55.71933 | 12.11500 | 9385 ft | 286 kts | 96° |
| 2026-04-30 21:14 | 55.71638 | 12.14978 | 9004 ft | 284 kts | 96° |
| 2026-04-30 21:14 | 55.71347 | 12.18424 | 8636 ft | 281 kts | 96° |
| 2026-04-30 21:14 | 55.70906 | 12.21780 | 8273 ft | 280 kts | 109° |
| 2026-04-30 21:15 | 55.69968 | 12.24810 | 7905 ft | 281 kts | 125° |
| 2026-04-30 21:15 | 55.68597 | 12.27275 | 7518 ft | 282 kts | 138° |
| 2026-04-30 21:15 | 55.67099 | 12.29518 | 7135 ft | 281 kts | 137° |
| 2026-04-30 21:15 | 55.65608 | 12.31763 | 6749 ft | 281 kts | 137° |
| 2026-04-30 21:16 | 55.64128 | 12.34006 | 6356 ft | 280 kts | 137° |
| 2026-04-30 21:16 | 55.62643 | 12.36212 | 5970 ft | 278 kts | 143° |
| 2026-04-30 21:16 | 55.60880 | 12.37593 | 5523 ft | 282 kts | 168° |
| 2026-04-30 21:16 | 55.58932 | 12.37454 | 5159 ft | 281 kts | 195° |
| 2026-04-30 21:17 | 55.57240 | 12.35909 | 4837 ft | 277 kts | 220° |
| 2026-04-30 21:17 | 55.55805 | 12.33704 | 4617 ft | 272 kts | 221° |
| 2026-04-30 21:17 | 55.54375 | 12.31500 | 4432 ft | 272 kts | 221° |
| 2026-04-30 21:17 | 55.52952 | 12.29320 | 4293 ft | 268 kts | 221° |
| 2026-04-30 21:18 | 55.51571 | 12.27211 | 4158 ft | 257 kts | 221° |
| 2026-04-30 21:18 | 55.50688 | 12.25865 | 4069 ft | 250 kts | 221° |
| 2026-04-30 21:18 | 55.48974 | 12.23237 | 3843 ft | 238 kts | 222° |
| 2026-04-30 21:18 | 55.48161 | 12.21953 | 3760 ft | 237 kts | 223° |
| 2026-04-30 21:19 | 55.46864 | 12.20277 | 3625 ft | 227 kts | 205° |
| 2026-04-30 21:19 | 55.45352 | 12.19698 | 3501 ft | 223 kts | 178° |
| 2026-04-30 21:19 | 55.43857 | 12.20337 | 3375 ft | 222 kts | 152° |
| 2026-04-30 21:19 | 55.42682 | 12.22051 | 3249 ft | 221 kts | 125° |
| 2026-04-30 21:20 | 55.42052 | 12.24468 | 3123 ft | 218 kts | 99° |
| 2026-04-30 21:20 | 55.42071 | 12.27097 | 2998 ft | 215 kts | 74° |
| 2026-04-30 21:20 | 55.42687 | 12.29451 | 2865 ft | 212 kts | 56° |
| 2026-04-30 21:20 | 55.43458 | 12.31667 | 2747 ft | 212 kts | 56° |
| 2026-04-30 21:21 | 55.44222 | 12.33886 | 2625 ft | 212 kts | 56° |
| 2026-04-30 21:21 | 55.44987 | 12.36105 | 2496 ft | 212 kts | 56° |
| 2026-04-30 21:21 | 55.46522 | 12.40520 | 2513 ft | 211 kts | 51° |
| 2026-04-30 21:22 | 55.47527 | 12.42385 | 2444 ft | 209 kts | 39° |
| 2026-04-30 21:22 | 55.50796 | 12.47389 | 2106 ft | 206 kts | 38° |
| 2026-04-30 21:23 | 55.51854 | 12.49014 | 1948 ft | 193 kts | 38° |
| 2026-04-30 21:23 | 55.52819 | 12.50500 | 1729 ft | 177 kts | 37° |
| 2026-04-30 21:23 | 55.54520 | 12.53116 | 1304 ft | 149 kts | 36° |
| 2026-04-30 21:24 | 55.55288 | 12.54291 | 1086 ft | 144 kts | 36° |
| 2026-04-30 21:24 | 55.56042 | 12.55430 | 873 ft | 142 kts | 36° |
| 2026-04-30 21:24 | 55.56797 | 12.56575 | 672 ft | 143 kts | 38° |
| 2026-04-30 21:24 | 55.57542 | 12.57749 | 471 ft | 144 kts | 39° |
| 2026-04-30 21:25 | 55.59051 | 12.60076 | 137 ft | 144 kts | 38° |
| 2026-04-30 21:25 | 55.59796 | 12.61215 | 23 ft | 132 kts | 39° |
| 2026-04-30 21:25 | 55.60333 | 12.62055 | 23 ft | 56 kts | 41° |
| 2026-04-30 21:26 | 55.60610 | 12.62339 | 31 ft | 19 kts | 18° |
| 2026-04-30 21:26 | 55.60717 | 12.62378 | 24 ft | 14 kts | 8° |
| 2026-04-30 21:27 | 55.60874 | 12.62527 | 24 ft | 16 kts | 44° |
| 2026-04-30 21:27 | 55.60955 | 12.62657 | 24 ft | 12 kts | 39° |
| 2026-04-30 21:27 | 55.61023 | 12.62756 | 24 ft | 13 kts | 40° |
| 2026-04-30 21:28 | 55.61184 | 12.63006 | 25 ft | 15 kts | 42° |
| 2026-04-30 21:28 | 55.61268 | 12.63137 | 24 ft | 17 kts | 41° |
| 2026-04-30 21:28 | 55.61395 | 12.63333 | 24 ft | 8 kts | 40° |
| 2026-04-30 21:29 | 55.61417 | 12.63367 | 24 ft | 4 kts | 40° |
| 2026-04-30 21:29 | 55.61503 | 12.63494 | 24 ft | 4 kts | 41° |
| 2026-04-30 21:30 | 55.61560 | 12.63582 | 25 ft | 5 kts | 41° |
| 2026-04-30 21:31 | 55.61628 | 12.63689 | 24 ft | 1 kts | 42° |
| 2026-04-30 21:31 | 55.61662 | 12.63743 | 25 ft | 5 kts | 42° |
| 2026-04-30 21:32 | 55.61739 | 12.63866 | 24 ft | 10 kts | 41° |
| 2026-04-30 21:32 | 55.61798 | 12.63957 | 26 ft | 12 kts | 41° |
| 2026-04-30 21:32 | 55.61867 | 12.64059 | 24 ft | 14 kts | 35° |
| 2026-04-30 21:32 | 55.61952 | 12.64137 | 24 ft | 14 kts | 25° |
| 2026-04-30 21:33 | 55.62048 | 12.64214 | 24 ft | 16 kts | 24° |
| 2026-04-30 21:33 | 55.62218 | 12.64357 | 21 ft | 10 kts | 26° |
| 2026-04-30 21:33 | 55.62258 | 12.64416 | 24 ft | 7 kts | 51° |
| 2026-04-30 21:34 | 55.62282 | 12.64489 | 23 ft | 7 kts | 75° |
| 2026-04-30 21:34 | 55.62316 | 12.64667 | 24 ft | 8 kts | 65° |
| 2026-04-30 21:34 | 55.62351 | 12.64756 | 24 ft | 10 kts | 37° |
| 2026-04-30 21:35 | 55.62420 | 12.64776 | 24 ft | 11 kts | 358° |
| 2026-04-30 21:35 | 55.62479 | 12.64770 | 24 ft | 6 kts | 356° |
| 2026-04-30 21:35 | 55.62515 | 12.64767 | 24 ft | 3 kts | 357° |
| 2026-04-30 21:35 | 55.62538 | 12.64768 | 24 ft | 3 kts | 15° |
| 2026-04-30 21:36 | 55.62552 | 12.64808 | 25 ft | 5 kts | 70° |
| 2026-04-30 21:36 | 55.62556 | 12.64855 | 24 ft | 3 kts | 83° |
| 2026-04-30 21:37 | 55.62557 | 12.64894 | 24 ft | 0 kts | 88° |